sensor_id;sensor_type;location;lat;lon;timestamp;temperature;humidity
7159;DHT22;63175;52.374;13.132;2024-03-06T00:00:36;3.80;99.90
7159;DHT22;63175;52.374;13.132;2024-03-06T00:03:03;3.80;99.90
7159;DHT22;63175;52.374;13.132;2024-03-06T00:05:30;3.80;99.90
7159;DHT22;63175;52.374;13.132;2024-03-06T00:07:57;3.80;99.90
7159;DHT22;63175;52.374;13.132;2024-03-06T00:10:26;3.70;99.90
7159;DHT22;63175;52.374;13.132;2024-03-06T00:12:54;3.60;99.90
7159;DHT22;63175;52.374;13.132;2024-03-06T00:15:21;3.60;99.90
7159;DHT22;63175;52.374;13.132;2024-03-06T00:17:47;3.60;99.90
7159;DHT22;63175;52.374;13.132;2024-03-06T00:20:15;3.60;99.90
7159;DHT22;63175;52.374;13.132;2024-03-06T00:22:42;3.60;99.90
7159;DHT22;63175;52.374;13.132;2024-03-06T00:25:09;3.60;99.90
7159;DHT22;63175;52.374;13.132;2024-03-06T00:27:36;3.60;99.90
7159;DHT22;63175;52.374;13.132;2024-03-06T00:30:05;3.60;99.90
7159;DHT22;63175;52.374;13.132;2024-03-06T00:32:32;3.60;99.90
7159;DHT22;63175;52.374;13.132;2024-03-06T00:34:59;3.60;99.90
7159;DHT22;63175;52.374;13.132;2024-03-06T00:37:26;3.60;99.90
7159;DHT22;63175;52.374;13.132;2024-03-06T00:39:53;3.60;99.90
7159;DHT22;63175;52.374;13.132;2024-03-06T00:42:20;3.50;99.90
7159;DHT22;63175;52.374;13.132;2024-03-06T00:44:47;3.50;99.90
7159;DHT22;63175;52.374;13.132;2024-03-06T00:47:15;3.50;99.90
7159;DHT22;63175;52.374;13.132;2024-03-06T00:49:42;3.40;99.90
7159;DHT22;63175;52.374;13.132;2024-03-06T00:52:09;3.40;99.90
7159;DHT22;63175;52.374;13.132;2024-03-06T00:54:35;3.40;99.90
7159;DHT22;63175;52.374;13.132;2024-03-06T00:57:02;3.30;99.90
7159;DHT22;63175;52.374;13.132;2024-03-06T00:59:29;3.30;99.90
7159;DHT22;63175;52.374;13.132;2024-03-06T01:01:56;3.30;99.90
7159;DHT22;63175;52.374;13.132;2024-03-06T01:04:24;3.30;99.90
7159;DHT22;63175;52.374;13.132;2024-03-06T01:06:51;3.20;99.90
7159;DHT22;63175;52.374;13.132;2024-03-06T01:09:18;3.20;99.90
7159;DHT22;63175;52.374;13.132;2024-03-06T01:11:45;3.20;99.90
7159;DHT22;63175;52.374;13.132;2024-03-06T01:14:12;3.10;99.90
7159;DHT22;63175;52.374;13.132;2024-03-06T01:16:39;3.10;99.90
7159;DHT22;63175;52.374;13.132;2024-03-06T01:19:06;3.10;99.90
7159;DHT22;63175;52.374;13.132;2024-03-06T01:21:34;3.10;99.90
7159;DHT22;63175;52.374;13.132;2024-03-06T01:24:01;3.10;99.90
7159;DHT22;63175;52.374;13.132;2024-03-06T01:26:28;3.00;99.90
7159;DHT22;63175;52.374;13.132;2024-03-06T01:28:54;3.00;99.90
7159;DHT22;63175;52.374;13.132;2024-03-06T01:31:21;2.90;99.90
7159;DHT22;63175;52.374;13.132;2024-03-06T01:33:48;2.90;99.90
7159;DHT22;63175;52.374;13.132;2024-03-06T01:36:15;2.90;99.90
7159;DHT22;63175;52.374;13.132;2024-03-06T01:38:43;2.90;99.90
7159;DHT22;63175;52.374;13.132;2024-03-06T01:41:11;2.70;99.90
7159;DHT22;63175;52.374;13.132;2024-03-06T01:43:38;2.80;99.90
7159;DHT22;63175;52.374;13.132;2024-03-06T01:46:05;2.80;99.90
7159;DHT22;63175;52.374;13.132;2024-03-06T01:48:33;2.80;99.90
7159;DHT22;63175;52.374;13.132;2024-03-06T01:51:02;2.80;99.90
7159;DHT22;63175;52.374;13.132;2024-03-06T01:53:31;2.80;99.90
7159;DHT22;63175;52.374;13.132;2024-03-06T01:56:02;2.80;99.90
7159;DHT22;63175;52.374;13.132;2024-03-06T01:58:29;2.80;99.90
7159;DHT22;63175;52.374;13.132;2024-03-06T02:00:57;2.80;99.90
7159;DHT22;63175;52.374;13.132;2024-03-06T02:03:25;2.70;99.90
7159;DHT22;63175;52.374;13.132;2024-03-06T02:05:53;2.70;99.90
7159;DHT22;63175;52.374;13.132;2024-03-06T02:08:20;2.60;99.90
7159;DHT22;63175;52.374;13.132;2024-03-06T02:10:47;2.60;99.90
7159;DHT22;63175;52.374;13.132;2024-03-06T02:13:15;2.60;99.90
7159;DHT22;63175;52.374;13.132;2024-03-06T02:15:44;2.50;99.90
7159;DHT22;63175;52.374;13.132;2024-03-06T02:18:11;2.50;99.90
7159;DHT22;63175;52.374;13.132;2024-03-06T02:20:40;2.50;99.90
7159;DHT22;63175;52.374;13.132;2024-03-06T02:23:07;2.50;99.90
7159;DHT22;63175;52.374;13.132;2024-03-06T02:25:34;2.50;99.90
7159;DHT22;63175;52.374;13.132;2024-03-06T02:28:01;2.50;99.90
7159;DHT22;63175;52.374;13.132;2024-03-06T02:30:28;2.50;99.90
7159;DHT22;63175;52.374;13.132;2024-03-06T02:32:56;2.40;99.90
7159;DHT22;63175;52.374;13.132;2024-03-06T02:35:24;2.40;99.90
7159;DHT22;63175;52.374;13.132;2024-03-06T02:37:52;2.40;99.90
7159;DHT22;63175;52.374;13.132;2024-03-06T02:40:19;2.40;99.90
7159;DHT22;63175;52.374;13.132;2024-03-06T02:42:46;2.40;99.90
7159;DHT22;63175;52.374;13.132;2024-03-06T02:45:13;2.40;99.90
7159;DHT22;63175;52.374;13.132;2024-03-06T02:47:40;2.40;99.90
7159;DHT22;63175;52.374;13.132;2024-03-06T02:50:07;2.30;99.90
7159;DHT22;63175;52.374;13.132;2024-03-06T02:52:35;2.30;99.90
7159;DHT22;63175;52.374;13.132;2024-03-06T02:55:04;2.30;99.90
7159;DHT22;63175;52.374;13.132;2024-03-06T02:57:31;2.30;99.90
7159;DHT22;63175;52.374;13.132;2024-03-06T02:59:59;2.30;99.90
7159;DHT22;63175;52.374;13.132;2024-03-06T03:02:26;2.40;99.90
7159;DHT22;63175;52.374;13.132;2024-03-06T03:04:53;2.40;99.90
7159;DHT22;63175;52.374;13.132;2024-03-06T03:07:19;2.40;99.90
7159;DHT22;63175;52.374;13.132;2024-03-06T03:09:47;2.40;99.90
7159;DHT22;63175;52.374;13.132;2024-03-06T03:12:15;2.30;99.90
7159;DHT22;63175;52.374;13.132;2024-03-06T03:14:42;2.30;99.90
7159;DHT22;63175;52.374;13.132;2024-03-06T03:17:09;2.30;99.90
7159;DHT22;63175;52.374;13.132;2024-03-06T03:19:36;2.30;99.90
7159;DHT22;63175;52.374;13.132;2024-03-06T03:22:05;2.30;99.90
7159;DHT22;63175;52.374;13.132;2024-03-06T03:24:33;2.30;99.90
7159;DHT22;63175;52.374;13.132;2024-03-06T03:27:00;2.20;99.90
7159;DHT22;63175;52.374;13.132;2024-03-06T03:29:29;2.20;99.90
7159;DHT22;63175;52.374;13.132;2024-03-06T03:31:56;2.20;99.90
7159;DHT22;63175;52.374;13.132;2024-03-06T03:34:23;2.20;99.90
7159;DHT22;63175;52.374;13.132;2024-03-06T03:36:50;2.20;99.90
7159;DHT22;63175;52.374;13.132;2024-03-06T03:39:16;2.20;99.90
7159;DHT22;63175;52.374;13.132;2024-03-06T03:41:46;2.30;99.90
7159;DHT22;63175;52.374;13.132;2024-03-06T03:44:14;2.30;99.90
7159;DHT22;63175;52.374;13.132;2024-03-06T03:46:42;2.20;99.90
7159;DHT22;63175;52.374;13.132;2024-03-06T03:49:09;2.20;99.90
7159;DHT22;63175;52.374;13.132;2024-03-06T03:51:38;2.20;99.90
7159;DHT22;63175;52.374;13.132;2024-03-06T03:54:06;2.20;99.90
7159;DHT22;63175;52.374;13.132;2024-03-06T03:56:33;2.20;99.90
7159;DHT22;63175;52.374;13.132;2024-03-06T03:59:00;2.20;99.90
7159;DHT22;63175;52.374;13.132;2024-03-06T04:01:27;2.20;99.90
7159;DHT22;63175;52.374;13.132;2024-03-06T04:03:55;2.20;99.90
7159;DHT22;63175;52.374;13.132;2024-03-06T04:06:22;2.20;99.90
7159;DHT22;63175;52.374;13.132;2024-03-06T04:08:49;2.20;99.90
7159;DHT22;63175;52.374;13.132;2024-03-06T04:11:16;2.30;99.90
7159;DHT22;63175;52.374;13.132;2024-03-06T04:13:43;2.20;99.90
7159;DHT22;63175;52.374;13.132;2024-03-06T04:16:10;2.20;99.90
7159;DHT22;63175;52.374;13.132;2024-03-06T04:18:37;2.20;99.90
7159;DHT22;63175;52.374;13.132;2024-03-06T04:21:06;2.20;99.90
7159;DHT22;63175;52.374;13.132;2024-03-06T04:23:33;2.20;99.90
7159;DHT22;63175;52.374;13.132;2024-03-06T04:26:01;2.20;99.90
7159;DHT22;63175;52.374;13.132;2024-03-06T04:28:28;2.20;99.90
7159;DHT22;63175;52.374;13.132;2024-03-06T04:30:55;2.20;99.90
7159;DHT22;63175;52.374;13.132;2024-03-06T04:33:22;2.20;99.90
7159;DHT22;63175;52.374;13.132;2024-03-06T04:35:49;2.10;99.90
7159;DHT22;63175;52.374;13.132;2024-03-06T04:38:17;2.10;99.90
7159;DHT22;63175;52.374;13.132;2024-03-06T04:40:44;2.10;99.90
7159;DHT22;63175;52.374;13.132;2024-03-06T04:43:11;2.10;99.90
7159;DHT22;63175;52.374;13.132;2024-03-06T04:45:38;2.10;99.90
7159;DHT22;63175;52.374;13.132;2024-03-06T04:48:06;2.00;99.90
7159;DHT22;63175;52.374;13.132;2024-03-06T04:50:33;2.00;99.90
7159;DHT22;63175;52.374;13.132;2024-03-06T04:53:00;2.00;99.90
7159;DHT22;63175;52.374;13.132;2024-03-06T04:55:28;1.90;99.90
7159;DHT22;63175;52.374;13.132;2024-03-06T04:57:56;1.90;99.90
7159;DHT22;63175;52.374;13.132;2024-03-06T05:00:23;1.80;99.90
7159;DHT22;63175;52.374;13.132;2024-03-06T05:02:50;1.80;99.90
7159;DHT22;63175;52.374;13.132;2024-03-06T05:05:17;1.80;99.90
7159;DHT22;63175;52.374;13.132;2024-03-06T05:07:44;1.80;99.90
7159;DHT22;63175;52.374;13.132;2024-03-06T05:10:11;1.80;99.90
7159;DHT22;63175;52.374;13.132;2024-03-06T05:12:39;1.80;99.90
7159;DHT22;63175;52.374;13.132;2024-03-06T05:15:06;1.80;99.90
7159;DHT22;63175;52.374;13.132;2024-03-06T05:17:33;1.80;99.90
7159;DHT22;63175;52.374;13.132;2024-03-06T05:20:00;1.70;99.90
7159;DHT22;63175;52.374;13.132;2024-03-06T05:22:28;1.70;99.90
7159;DHT22;63175;52.374;13.132;2024-03-06T05:24:55;1.60;99.90
7159;DHT22;63175;52.374;13.132;2024-03-06T05:27:22;1.60;99.90
7159;DHT22;63175;52.374;13.132;2024-03-06T05:29:50;1.60;99.90
7159;DHT22;63175;52.374;13.132;2024-03-06T05:32:17;1.60;99.90
7159;DHT22;63175;52.374;13.132;2024-03-06T05:34:45;1.60;99.90
7159;DHT22;63175;52.374;13.132;2024-03-06T05:37:11;1.50;99.90
7159;DHT22;63175;52.374;13.132;2024-03-06T05:39:38;1.50;99.90
7159;DHT22;63175;52.374;13.132;2024-03-06T05:42:08;1.50;99.90
7159;DHT22;63175;52.374;13.132;2024-03-06T05:44:35;1.50;99.90
7159;DHT22;63175;52.374;13.132;2024-03-06T05:47:03;1.60;99.90
7159;DHT22;63175;52.374;13.132;2024-03-06T05:49:31;1.60;99.90
7159;DHT22;63175;52.374;13.132;2024-03-06T05:51:58;1.50;99.90
7159;DHT22;63175;52.374;13.132;2024-03-06T05:54:25;1.50;99.90
7159;DHT22;63175;52.374;13.132;2024-03-06T05:56:53;1.50;99.90
7159;DHT22;63175;52.374;13.132;2024-03-06T05:59:20;1.50;99.90
7159;DHT22;63175;52.374;13.132;2024-03-06T06:01:47;1.50;99.90
7159;DHT22;63175;52.374;13.132;2024-03-06T06:04:15;1.50;99.90
7159;DHT22;63175;52.374;13.132;2024-03-06T06:06:42;1.50;99.90
7159;DHT22;63175;52.374;13.132;2024-03-06T06:09:09;1.60;99.90
7159;DHT22;63175;52.374;13.132;2024-03-06T06:11:41;1.50;99.90
7159;DHT22;63175;52.374;13.132;2024-03-06T06:14:08;1.60;99.90
7159;DHT22;63175;52.374;13.132;2024-03-06T06:16:36;1.60;99.90
7159;DHT22;63175;52.374;13.132;2024-03-06T06:19:03;1.70;99.90
7159;DHT22;63175;52.374;13.132;2024-03-06T06:21:32;1.70;99.90
7159;DHT22;63175;52.374;13.132;2024-03-06T06:24:01;1.80;99.90
7159;DHT22;63175;52.374;13.132;2024-03-06T06:26:29;1.80;99.90
7159;DHT22;63175;52.374;13.132;2024-03-06T06:28:56;1.90;99.90
7159;DHT22;63175;52.374;13.132;2024-03-06T06:31:23;2.00;99.90
7159;DHT22;63175;52.374;13.132;2024-03-06T06:33:51;2.10;99.90
7159;DHT22;63175;52.374;13.132;2024-03-06T06:36:18;2.20;99.90
7159;DHT22;63175;52.374;13.132;2024-03-06T06:38:46;2.30;99.90
7159;DHT22;63175;52.374;13.132;2024-03-06T06:41:13;2.40;99.90
7159;DHT22;63175;52.374;13.132;2024-03-06T06:43:40;2.60;99.90
7159;DHT22;63175;52.374;13.132;2024-03-06T06:46:09;2.70;99.90
7159;DHT22;63175;52.374;13.132;2024-03-06T06:48:36;2.80;99.90
7159;DHT22;63175;52.374;13.132;2024-03-06T06:51:03;2.90;99.90
7159;DHT22;63175;52.374;13.132;2024-03-06T06:53:30;3.00;99.90
7159;DHT22;63175;52.374;13.132;2024-03-06T06:55:58;3.20;99.90
7159;DHT22;63175;52.374;13.132;2024-03-06T06:58:25;3.30;99.90
7159;DHT22;63175;52.374;13.132;2024-03-06T07:00:53;3.50;99.90
7159;DHT22;63175;52.374;13.132;2024-03-06T07:03:20;3.70;99.90
7159;DHT22;63175;52.374;13.132;2024-03-06T07:05:48;3.80;99.90
7159;DHT22;63175;52.374;13.132;2024-03-06T07:08:15;4.00;99.90
7159;DHT22;63175;52.374;13.132;2024-03-06T07:10:42;4.10;99.90
7159;DHT22;63175;52.374;13.132;2024-03-06T07:13:10;4.20;99.90
7159;DHT22;63175;52.374;13.132;2024-03-06T07:15:37;4.40;99.90
7159;DHT22;63175;52.374;13.132;2024-03-06T07:18:04;4.50;99.90
7159;DHT22;63175;52.374;13.132;2024-03-06T07:20:32;4.70;99.90
7159;DHT22;63175;52.374;13.132;2024-03-06T07:22:59;4.90;99.90
7159;DHT22;63175;52.374;13.132;2024-03-06T07:25:26;5.00;99.90
7159;DHT22;63175;52.374;13.132;2024-03-06T07:27:53;5.20;99.90
7159;DHT22;63175;52.374;13.132;2024-03-06T07:30:21;5.40;99.90
7159;DHT22;63175;52.374;13.132;2024-03-06T07:32:48;5.60;99.90
7159;DHT22;63175;52.374;13.132;2024-03-06T07:35:15;5.80;99.90
7159;DHT22;63175;52.374;13.132;2024-03-06T07:37:43;6.00;99.90
7159;DHT22;63175;52.374;13.132;2024-03-06T07:40:10;6.30;99.90
7159;DHT22;63175;52.374;13.132;2024-03-06T07:42:37;6.60;99.90
7159;DHT22;63175;52.374;13.132;2024-03-06T07:45:05;6.90;99.90
7159;DHT22;63175;52.374;13.132;2024-03-06T07:47:34;7.10;99.90
7159;DHT22;63175;52.374;13.132;2024-03-06T07:50:03;7.50;99.90
7159;DHT22;63175;52.374;13.132;2024-03-06T07:52:31;7.80;99.90
7159;DHT22;63175;52.374;13.132;2024-03-06T07:54:58;8.20;99.90
7159;DHT22;63175;52.374;13.132;2024-03-06T07:57:25;8.50;99.90
7159;DHT22;63175;52.374;13.132;2024-03-06T07:59:52;8.90;99.90
7159;DHT22;63175;52.374;13.132;2024-03-06T08:02:20;9.30;99.90
7159;DHT22;63175;52.374;13.132;2024-03-06T08:04:49;9.80;99.90
7159;DHT22;63175;52.374;13.132;2024-03-06T08:07:16;10.20;99.90
7159;DHT22;63175;52.374;13.132;2024-03-06T08:09:43;10.60;99.90
7159;DHT22;63175;52.374;13.132;2024-03-06T08:12:10;11.10;99.90
7159;DHT22;63175;52.374;13.132;2024-03-06T08:14:37;11.50;99.90
7159;DHT22;63175;52.374;13.132;2024-03-06T08:17:04;11.90;99.10
7159;DHT22;63175;52.374;13.132;2024-03-06T08:19:30;12.30;98.10
7159;DHT22;63175;52.374;13.132;2024-03-06T08:21:59;12.60;96.60
7159;DHT22;63175;52.374;13.132;2024-03-06T08:24:26;12.90;94.90
7159;DHT22;63175;52.374;13.132;2024-03-06T08:26:53;13.20;93.00
7159;DHT22;63175;52.374;13.132;2024-03-06T08:29:21;13.40;92.10
7159;DHT22;63175;52.374;13.132;2024-03-06T08:31:47;13.60;91.40
7159;DHT22;63175;52.374;13.132;2024-03-06T08:34:14;13.90;90.10
7159;DHT22;63175;52.374;13.132;2024-03-06T08:36:42;14.00;88.40
7159;DHT22;63175;52.374;13.132;2024-03-06T08:39:10;14.20;85.00
7159;DHT22;63175;52.374;13.132;2024-03-06T08:41:39;14.40;84.00
7159;DHT22;63175;52.374;13.132;2024-03-06T08:44:06;14.50;82.70
7159;DHT22;63175;52.374;13.132;2024-03-06T08:46:32;14.70;81.90
7159;DHT22;63175;52.374;13.132;2024-03-06T08:48:59;14.80;80.70
7159;DHT22;63175;52.374;13.132;2024-03-06T08:51:27;15.00;79.20
7159;DHT22;63175;52.374;13.132;2024-03-06T08:53:54;15.20;77.90
7159;DHT22;63175;52.374;13.132;2024-03-06T08:56:22;15.40;76.70
7159;DHT22;63175;52.374;13.132;2024-03-06T08:58:49;15.60;74.70
7159;DHT22;63175;52.374;13.132;2024-03-06T09:01:16;15.80;73.00
7159;DHT22;63175;52.374;13.132;2024-03-06T09:03:43;16.00;72.20
7159;DHT22;63175;52.374;13.132;2024-03-06T09:06:12;16.20;70.50
7159;DHT22;63175;52.374;13.132;2024-03-06T09:08:39;16.40;68.60
7159;DHT22;63175;52.374;13.132;2024-03-06T09:11:06;16.50;67.80
7159;DHT22;63175;52.374;13.132;2024-03-06T09:13:34;16.70;66.00
7159;DHT22;63175;52.374;13.132;2024-03-06T09:16:02;16.80;65.30
7159;DHT22;63175;52.374;13.132;2024-03-06T09:18:29;16.90;65.20
7159;DHT22;63175;52.374;13.132;2024-03-06T09:20:56;17.00;64.10
7159;DHT22;63175;52.374;13.132;2024-03-06T09:23:23;17.20;63.80
7159;DHT22;63175;52.374;13.132;2024-03-06T09:25:51;17.30;62.60
7159;DHT22;63175;52.374;13.132;2024-03-06T09:28:19;17.50;62.20
7159;DHT22;63175;52.374;13.132;2024-03-06T09:30:47;17.50;61.40
7159;DHT22;63175;52.374;13.132;2024-03-06T09:33:14;17.40;60.30
7159;DHT22;63175;52.374;13.132;2024-03-06T09:35:41;17.50;59.90
7159;DHT22;63175;52.374;13.132;2024-03-06T09:38:10;17.60;58.80
7159;DHT22;63175;52.374;13.132;2024-03-06T09:40:39;17.70;57.80
7159;DHT22;63175;52.374;13.132;2024-03-06T09:43:07;17.70;57.30
7159;DHT22;63175;52.374;13.132;2024-03-06T09:45:34;17.80;56.50
7159;DHT22;63175;52.374;13.132;2024-03-06T09:48:04;17.90;56.30
7159;DHT22;63175;52.374;13.132;2024-03-06T09:50:34;18.00;55.70
7159;DHT22;63175;52.374;13.132;2024-03-06T09:53:04;18.00;55.30
7159;DHT22;63175;52.374;13.132;2024-03-06T09:55:34;18.10;55.00
7159;DHT22;63175;52.374;13.132;2024-03-06T09:58:03;18.10;54.60
7159;DHT22;63175;52.374;13.132;2024-03-06T10:00:30;18.20;53.40
7159;DHT22;63175;52.374;13.132;2024-03-06T10:02:59;18.30;53.30
7159;DHT22;63175;52.374;13.132;2024-03-06T10:05:28;18.40;52.80
7159;DHT22;63175;52.374;13.132;2024-03-06T10:07:56;18.50;52.70
7159;DHT22;63175;52.374;13.132;2024-03-06T10:10:24;18.50;52.70
7159;DHT22;63175;52.374;13.132;2024-03-06T10:12:52;18.40;51.60
7159;DHT22;63175;52.374;13.132;2024-03-06T10:15:19;18.60;51.80
7159;DHT22;63175;52.374;13.132;2024-03-06T10:17:47;18.70;50.90
7159;DHT22;63175;52.374;13.132;2024-03-06T10:20:19;18.70;50.80
7159;DHT22;63175;52.374;13.132;2024-03-06T10:22:49;18.80;50.60
7159;DHT22;63175;52.374;13.132;2024-03-06T10:25:18;18.80;50.10
7159;DHT22;63175;52.374;13.132;2024-03-06T10:27:46;18.70;50.20
7159;DHT22;63175;52.374;13.132;2024-03-06T10:30:14;18.60;50.40
7159;DHT22;63175;52.374;13.132;2024-03-06T10:32:42;18.60;50.30
7159;DHT22;63175;52.374;13.132;2024-03-06T10:35:18;18.70;50.30
7159;DHT22;63175;52.374;13.132;2024-03-06T10:37:46;18.80;50.20
7159;DHT22;63175;52.374;13.132;2024-03-06T10:40:16;18.90;49.90
7159;DHT22;63175;52.374;13.132;2024-03-06T10:42:45;19.00;49.70
7159;DHT22;63175;52.374;13.132;2024-03-06T10:45:13;19.20;49.90
7159;DHT22;63175;52.374;13.132;2024-03-06T10:47:41;19.30;49.30
7159;DHT22;63175;52.374;13.132;2024-03-06T10:50:14;19.60;48.50
7159;DHT22;63175;52.374;13.132;2024-03-06T10:52:42;19.50;48.00
7159;DHT22;63175;52.374;13.132;2024-03-06T10:55:11;19.20;48.10
7159;DHT22;63175;52.374;13.132;2024-03-06T10:57:42;18.80;47.40
7159;DHT22;63175;52.374;13.132;2024-03-06T11:00:10;18.50;48.20
7159;DHT22;63175;52.374;13.132;2024-03-06T11:02:42;18.50;49.10
7159;DHT22;63175;52.374;13.132;2024-03-06T11:05:10;18.70;49.00
7159;DHT22;63175;52.374;13.132;2024-03-06T11:07:37;18.70;48.30
7159;DHT22;63175;52.374;13.132;2024-03-06T11:10:04;18.50;47.60
7159;DHT22;63175;52.374;13.132;2024-03-06T11:12:35;18.40;47.30
7159;DHT22;63175;52.374;13.132;2024-03-06T11:15:13;18.40;47.70
7159;DHT22;63175;52.374;13.132;2024-03-06T11:17:40;18.40;47.50
7159;DHT22;63175;52.374;13.132;2024-03-06T11:20:15;18.30;47.10
7159;DHT22;63175;52.374;13.132;2024-03-06T11:23:02;18.00;46.70
7159;DHT22;63175;52.374;13.132;2024-03-06T11:26:00;17.40;47.20
7159;DHT22;63175;52.374;13.132;2024-03-06T11:28:29;16.90;47.90
7159;DHT22;63175;52.374;13.132;2024-03-06T11:30:58;16.60;48.60
7159;DHT22;63175;52.374;13.132;2024-03-06T11:33:34;16.30;49.10
7159;DHT22;63175;52.374;13.132;2024-03-06T11:36:18;15.90;49.70
7159;DHT22;63175;52.374;13.132;2024-03-06T11:38:52;15.40;50.20
7159;DHT22;63175;52.374;13.132;2024-03-06T11:41:20;14.90;50.60
7159;DHT22;63175;52.374;13.132;2024-03-06T11:43:48;14.40;51.40
7159;DHT22;63175;52.374;13.132;2024-03-06T11:46:20;14.10;52.30
7159;DHT22;63175;52.374;13.132;2024-03-06T11:48:54;14.30;53.50
7159;DHT22;63175;52.374;13.132;2024-03-06T11:51:22;14.90;53.50
7159;DHT22;63175;52.374;13.132;2024-03-06T11:53:52;15.50;53.50
7159;DHT22;63175;52.374;13.132;2024-03-06T11:56:19;16.10;51.80
7159;DHT22;63175;52.374;13.132;2024-03-06T11:58:47;16.60;50.80
7159;DHT22;63175;52.374;13.132;2024-03-06T12:01:14;16.80;49.90
7159;DHT22;63175;52.374;13.132;2024-03-06T12:03:43;17.00;49.80
7159;DHT22;63175;52.374;13.132;2024-03-06T12:06:10;17.00;49.50
7159;DHT22;63175;52.374;13.132;2024-03-06T12:08:39;16.80;49.50
7159;DHT22;63175;52.374;13.132;2024-03-06T12:11:06;16.50;49.70
7159;DHT22;63175;52.374;13.132;2024-03-06T12:13:33;16.20;49.90
7159;DHT22;63175;52.374;13.132;2024-03-06T12:16:04;15.70;49.70
7159;DHT22;63175;52.374;13.132;2024-03-06T12:18:31;15.20;50.60
7159;DHT22;63175;52.374;13.132;2024-03-06T12:21:02;15.00;51.40
7159;DHT22;63175;52.374;13.132;2024-03-06T12:23:29;14.80;51.80
7159;DHT22;63175;52.374;13.132;2024-03-06T12:26:03;14.70;52.20
7159;DHT22;63175;52.374;13.132;2024-03-06T12:28:30;14.70;52.70
7159;DHT22;63175;52.374;13.132;2024-03-06T12:30:57;14.80;53.40
7159;DHT22;63175;52.374;13.132;2024-03-06T12:33:26;14.90;53.80
7159;DHT22;63175;52.374;13.132;2024-03-06T12:36:03;15.00;53.90
7159;DHT22;63175;52.374;13.132;2024-03-06T12:38:30;15.20;53.90
7159;DHT22;63175;52.374;13.132;2024-03-06T12:40:57;15.30;52.80
7159;DHT22;63175;52.374;13.132;2024-03-06T12:43:25;15.30;52.10
7159;DHT22;63175;52.374;13.132;2024-03-06T12:45:52;15.10;52.30
7159;DHT22;63175;52.374;13.132;2024-03-06T12:48:21;15.00;52.60
7159;DHT22;63175;52.374;13.132;2024-03-06T12:50:48;14.90;52.80
7159;DHT22;63175;52.374;13.132;2024-03-06T12:53:18;14.80;53.40
7159;DHT22;63175;52.374;13.132;2024-03-06T12:55:46;14.80;53.90
7159;DHT22;63175;52.374;13.132;2024-03-06T12:58:13;14.80;53.80
7159;DHT22;63175;52.374;13.132;2024-03-06T13:00:40;14.80;53.70
7159;DHT22;63175;52.374;13.132;2024-03-06T13:03:07;14.80;53.80
7159;DHT22;63175;52.374;13.132;2024-03-06T13:05:34;14.80;53.70
7159;DHT22;63175;52.374;13.132;2024-03-06T13:08:01;14.70;53.10
7159;DHT22;63175;52.374;13.132;2024-03-06T13:10:29;14.70;53.20
7159;DHT22;63175;52.374;13.132;2024-03-06T13:12:56;14.80;53.40
7159;DHT22;63175;52.374;13.132;2024-03-06T13:15:23;14.90;53.50
7159;DHT22;63175;52.374;13.132;2024-03-06T13:17:50;15.00;53.30
7159;DHT22;63175;52.374;13.132;2024-03-06T13:20:17;15.10;53.00
7159;DHT22;63175;52.374;13.132;2024-03-06T13:22:44;15.10;52.80
7159;DHT22;63175;52.374;13.132;2024-03-06T13:25:12;15.00;52.50
7159;DHT22;63175;52.374;13.132;2024-03-06T13:27:40;14.90;52.30
7159;DHT22;63175;52.374;13.132;2024-03-06T13:30:08;14.70;51.80
7159;DHT22;63175;52.374;13.132;2024-03-06T13:32:34;14.40;51.80
7159;DHT22;63175;52.374;13.132;2024-03-06T13:35:01;14.20;52.10
7159;DHT22;63175;52.374;13.132;2024-03-06T13:37:28;14.20;52.60
7159;DHT22;63175;52.374;13.132;2024-03-06T13:39:55;14.20;52.90
7159;DHT22;63175;52.374;13.132;2024-03-06T13:42:26;14.20;52.70
7159;DHT22;63175;52.374;13.132;2024-03-06T13:44:54;14.10;52.80
7159;DHT22;63175;52.374;13.132;2024-03-06T13:47:21;14.10;53.20
7159;DHT22;63175;52.374;13.132;2024-03-06T13:49:48;14.00;53.30
7159;DHT22;63175;52.374;13.132;2024-03-06T13:52:15;14.00;53.50
7159;DHT22;63175;52.374;13.132;2024-03-06T13:54:46;13.80;53.90
7159;DHT22;63175;52.374;13.132;2024-03-06T13:57:13;13.60;54.10
7159;DHT22;63175;52.374;13.132;2024-03-06T13:59:41;13.60;54.70
7159;DHT22;63175;52.374;13.132;2024-03-06T14:02:09;13.50;54.70
7159;DHT22;63175;52.374;13.132;2024-03-06T14:04:36;13.50;54.80
7159;DHT22;63175;52.374;13.132;2024-03-06T14:07:03;13.50;54.90
7159;DHT22;63175;52.374;13.132;2024-03-06T14:09:30;13.40;54.70
7159;DHT22;63175;52.374;13.132;2024-03-06T14:11:57;13.40;54.70
7159;DHT22;63175;52.374;13.132;2024-03-06T14:14:24;13.30;54.80
7159;DHT22;63175;52.374;13.132;2024-03-06T14:16:51;13.30;54.70
7159;DHT22;63175;52.374;13.132;2024-03-06T14:19:19;13.10;55.00
7159;DHT22;63175;52.374;13.132;2024-03-06T14:21:47;13.00;55.30
7159;DHT22;63175;52.374;13.132;2024-03-06T14:24:14;12.80;55.60
7159;DHT22;63175;52.374;13.132;2024-03-06T14:26:41;12.70;55.90
7159;DHT22;63175;52.374;13.132;2024-03-06T14:29:08;12.50;56.10
7159;DHT22;63175;52.374;13.132;2024-03-06T14:31:35;12.40;56.40
7159;DHT22;63175;52.374;13.132;2024-03-06T14:34:02;12.30;56.80
7159;DHT22;63175;52.374;13.132;2024-03-06T14:36:30;12.20;57.10
7159;DHT22;63175;52.374;13.132;2024-03-06T14:38:57;12.10;57.30
7159;DHT22;63175;52.374;13.132;2024-03-06T14:41:24;12.10;57.60
7159;DHT22;63175;52.374;13.132;2024-03-06T14:43:51;12.00;58.50
7159;DHT22;63175;52.374;13.132;2024-03-06T14:46:19;11.90;58.60
7159;DHT22;63175;52.374;13.132;2024-03-06T14:48:46;11.90;59.10
7159;DHT22;63175;52.374;13.132;2024-03-06T14:51:13;11.80;59.60
7159;DHT22;63175;52.374;13.132;2024-03-06T14:53:42;11.80;60.10
7159;DHT22;63175;52.374;13.132;2024-03-06T14:56:09;11.80;60.40
7159;DHT22;63175;52.374;13.132;2024-03-06T14:58:36;11.70;60.20
7159;DHT22;63175;52.374;13.132;2024-03-06T15:01:04;11.70;59.90
7159;DHT22;63175;52.374;13.132;2024-03-06T15:03:30;11.60;59.30
7159;DHT22;63175;52.374;13.132;2024-03-06T15:05:57;11.40;59.40
7159;DHT22;63175;52.374;13.132;2024-03-06T15:08:25;11.30;59.50
7159;DHT22;63175;52.374;13.132;2024-03-06T15:10:53;11.30;59.50
7159;DHT22;63175;52.374;13.132;2024-03-06T15:13:20;11.30;59.60
7159;DHT22;63175;52.374;13.132;2024-03-06T15:15:49;11.20;59.50
7159;DHT22;63175;52.374;13.132;2024-03-06T15:18:17;11.20;59.30
7159;DHT22;63175;52.374;13.132;2024-03-06T15:20:44;11.10;59.10
7159;DHT22;63175;52.374;13.132;2024-03-06T15:23:11;11.10;59.10
7159;DHT22;63175;52.374;13.132;2024-03-06T15:25:38;11.00;59.10
7159;DHT22;63175;52.374;13.132;2024-03-06T15:28:06;11.00;59.20
7159;DHT22;63175;52.374;13.132;2024-03-06T15:30:34;10.90;59.10
7159;DHT22;63175;52.374;13.132;2024-03-06T15:33:03;10.90;59.20
7159;DHT22;63175;52.374;13.132;2024-03-06T15:35:30;10.80;59.20
7159;DHT22;63175;52.374;13.132;2024-03-06T15:37:57;10.80;59.40
7159;DHT22;63175;52.374;13.132;2024-03-06T15:40:24;10.70;59.40